createdAt,value
2023-05-04T00:00:25.390Z,8.07
2023-05-04T00:05:30.173Z,9.00
2023-05-04T00:10:31.931Z,8.77
2023-05-04T00:15:33.507Z,8.02
2023-05-04T00:20:36.155Z,7.85
2023-05-04T00:25:38.748Z,7.80
2023-05-04T00:30:40.393Z,8.50
2023-05-04T00:35:42.303Z,8.48
2023-05-04T00:40:44.407Z,7.78
2023-05-04T00:45:46.368Z,6.28
2023-05-04T00:50:48.012Z,8.00
2023-05-04T00:55:49.641Z,8.80
2023-05-04T01:00:51.977Z,7.30
2023-05-04T01:06:09.742Z,6.80
2023-05-04T01:11:16.281Z,7.95
2023-05-04T01:16:17.980Z,8.20
2023-05-04T01:21:19.630Z,10.93
2023-05-04T01:26:30.187Z,8.93
2023-05-04T01:31:35.521Z,10.18
2023-05-04T01:36:37.459Z,7.63
2023-05-04T01:41:39.399Z,7.78
2023-05-04T01:46:41.499Z,8.77
2023-05-04T01:51:43.223Z,9.30
2023-05-04T01:56:44.904Z,9.10
2023-05-04T02:01:47.233Z,10.18
2023-05-04T02:06:49.269Z,9.82
2023-05-04T02:11:52.306Z,7.05
2023-05-04T02:16:53.899Z,8.30
2023-05-04T02:21:55.652Z,9.30
2023-05-04T02:26:57.240Z,8.43
2023-05-04T02:31:58.995Z,9.70
2023-05-04T02:37:00.682Z,11.98
2023-05-04T02:42:03.060Z,14.75
2023-05-04T02:47:05.954Z,11.40
2023-05-04T02:52:07.977Z,11.07
2023-05-04T02:57:09.584Z,9.88
2023-05-04T03:02:11.413Z,13.02
2023-05-04T03:07:13.218Z,9.18
2023-05-04T03:12:15.036Z,12.07
2023-05-04T03:17:17.622Z,12.40
2023-05-04T03:22:19.575Z,14.25
2023-05-04T03:27:24.316Z,11.93
2023-05-04T03:32:26.801Z,13.75
2023-05-04T03:37:28.672Z,11.38
2023-05-04T03:42:30.385Z,9.55
2023-05-04T03:47:32.216Z,12.23
2023-05-04T03:52:34.309Z,12.98
2023-05-04T03:57:38.749Z,8.68
2023-05-04T04:02:41.110Z,13.40
2023-05-04T04:07:44.604Z,9.70
2023-05-04T04:12:46.321Z,11.23
2023-05-04T04:17:47.984Z,11.57
2023-05-04T04:22:49.567Z,10.05
2023-05-04T04:27:51.633Z,11.30
2023-05-04T04:32:54.957Z,10.10
2023-05-04T04:37:56.536Z,10.60
2023-05-04T04:42:58.154Z,11.57
2023-05-04T04:47:59.788Z,12.55
2023-05-04T04:53:01.461Z,10.38
2023-05-04T04:58:03.039Z,13.52
2023-05-04T05:03:05.093Z,10.70
2023-05-04T05:08:06.714Z,15.75
2023-05-04T05:13:12.690Z,11.88
2023-05-04T05:18:14.328Z,11.93
2023-05-04T05:23:16.378Z,12.18
2023-05-04T05:28:18.528Z,13.95
2023-05-04T05:33:20.413Z,11.65
2023-05-04T05:38:22.104Z,12.73
2023-05-04T05:43:23.695Z,12.02
2023-05-04T05:48:25.249Z,12.82
2023-05-04T05:53:26.886Z,12.63
2023-05-04T05:58:28.543Z,14.13
2023-05-04T06:03:30.208Z,14.52
2023-05-04T06:08:36.439Z,12.43
2023-05-04T06:13:38.305Z,15.90
2023-05-04T06:18:40.139Z,12.27
2023-05-04T06:23:41.929Z,15.10
2023-05-04T06:28:43.512Z,17.20
2023-05-04T06:33:45.054Z,11.75
2023-05-04T06:38:46.662Z,16.17
2023-05-04T06:43:48.293Z,14.77
2023-05-04T06:48:49.885Z,15.45
2023-05-04T06:53:51.496Z,13.48
2023-05-04T06:58:53.173Z,14.80
2023-05-04T07:03:58.286Z,12.75
2023-05-04T07:09:00.000Z,17.48
2023-05-04T07:14:02.072Z,13.25
2023-05-04T07:19:04.581Z,15.23
2023-05-04T07:24:07.419Z,15.48
2023-05-04T07:29:09.667Z,12.18
2023-05-04T07:34:11.392Z,13.23
2023-05-04T07:39:13.267Z,12.75
2023-05-04T07:44:17.189Z,17.27
2023-05-04T07:49:18.744Z,14.50
2023-05-04T07:54:22.550Z,11.93
2023-05-04T07:59:24.528Z,14.40
2023-05-04T08:04:26.161Z,12.30
2023-05-04T08:09:27.874Z,14.45
2023-05-04T08:14:29.609Z,11.90
2023-05-04T08:19:31.175Z,12.50
2023-05-04T08:24:32.976Z,10.82
2023-05-04T08:29:36.374Z,10.40
2023-05-04T08:34:38.749Z,10.43
2023-05-04T08:39:41.940Z,11.98
2023-05-04T08:45:00.884Z,13.35
2023-05-04T08:50:02.711Z,9.02
2023-05-04T08:55:06.604Z,12.77
2023-05-04T09:00:09.569Z,8.27
2023-05-04T09:05:12.104Z,8.80
2023-05-04T09:10:13.709Z,12.15
2023-05-04T09:15:20.783Z,9.38
2023-05-04T09:20:22.363Z,9.38
2023-05-04T09:25:24.038Z,10.43
2023-05-04T09:30:26.299Z,10.25
2023-05-04T09:35:33.598Z,10.02
2023-05-04T09:40:37.667Z,9.25
2023-05-04T09:45:44.197Z,11.13
2023-05-04T09:51:07.344Z,10.70
2023-05-04T09:56:14.168Z,8.98
2023-05-04T10:01:18.407Z,10.13
2023-05-04T10:06:21.287Z,11.27
2023-05-04T10:11:25.806Z,7.80
2023-05-04T10:16:45.047Z,11.05
2023-05-04T10:22:04.792Z,10.35
2023-05-04T10:27:06.296Z,8.35
2023-05-04T10:32:19.264Z,10.25
2023-05-04T10:37:22.020Z,9.13
2023-05-04T10:42:24.583Z,8.40
2023-05-04T10:47:32.856Z,8.50
2023-05-04T10:52:48.794Z,8.15
2023-05-04T10:57:53.784Z,6.78
2023-05-04T11:03:03.760Z,6.85
2023-05-04T11:08:19.356Z,7.15
2023-05-04T11:13:21.023Z,7.32
2023-05-04T11:18:30.922Z,6.50
2023-05-04T11:23:32.755Z,5.50
2023-05-04T11:28:38.317Z,5.72
2023-05-04T11:33:45.487Z,5.95
2023-05-04T11:38:47.554Z,5.75
2023-05-04T11:43:49.251Z,4.63
2023-05-04T11:48:50.866Z,5.00
2023-05-04T11:53:53.812Z,4.13
2023-05-04T11:58:55.386Z,7.35
2023-05-04T12:03:57.196Z,5.13
2023-05-04T12:09:04.951Z,4.15
2023-05-04T12:14:09.736Z,6.57
2023-05-04T12:19:13.138Z,5.85
2023-05-04T12:24:15.016Z,6.15
2023-05-04T12:29:16.739Z,6.22
2023-05-04T12:34:18.326Z,5.53
2023-05-04T12:39:20.009Z,4.43
2023-05-04T12:44:21.625Z,4.30
2023-05-04T12:49:24.814Z,3.75
2023-05-04T12:54:26.743Z,3.90
2023-05-04T12:59:28.535Z,3.60
2023-05-04T13:04:30.855Z,4.97
2023-05-04T13:09:32.753Z,3.88
2023-05-04T13:14:39.557Z,4.70
2023-05-04T13:19:41.603Z,5.00
2023-05-04T13:24:43.161Z,3.75
2023-05-04T13:29:44.819Z,5.80
2023-05-04T13:34:47.169Z,4.50
2023-05-04T13:39:49.096Z,5.93
2023-05-04T13:44:50.786Z,4.90
2023-05-04T13:49:52.420Z,4.07
2023-05-04T13:54:54.127Z,5.95
2023-05-04T14:00:06.290Z,6.00
2023-05-04T14:05:15.179Z,5.57
2023-05-04T14:10:17.740Z,3.80
2023-05-04T14:15:22.689Z,5.93
2023-05-04T14:20:24.444Z,4.30
2023-05-04T14:25:26.333Z,6.13
2023-05-04T14:30:28.027Z,6.05
2023-05-04T14:35:30.333Z,5.03
2023-05-04T14:40:32.006Z,7.63
2023-05-04T14:45:34.170Z,5.65
2023-05-04T14:50:35.741Z,6.13
2023-05-04T14:55:41.757Z,5.60
2023-05-04T15:00:44.737Z,5.07
2023-05-04T15:05:46.299Z,5.28
2023-05-04T15:10:47.854Z,5.22
2023-05-04T15:15:49.458Z,6.35
2023-05-04T15:20:51.068Z,7.45
2023-05-04T15:25:52.772Z,5.30
2023-05-04T15:30:54.327Z,6.18
2023-05-04T15:35:55.861Z,3.92
2023-05-04T15:40:57.432Z,7.05
2023-05-04T15:45:59.123Z,5.70
2023-05-04T15:51:01.172Z,4.53
2023-05-04T15:56:06.054Z,7.00
2023-05-04T16:01:10.707Z,7.28
2023-05-04T16:06:13.114Z,5.20
2023-05-04T16:11:14.679Z,6.25
2023-05-04T16:16:16.437Z,7.20
2023-05-04T16:21:18.413Z,6.55
2023-05-04T16:26:20.238Z,5.57
2023-05-04T16:31:21.834Z,5.47
2023-05-04T16:36:23.482Z,5.13
2023-05-04T16:41:25.113Z,4.20
2023-05-04T16:46:26.735Z,6.80
2023-05-04T16:51:28.359Z,6.40
2023-05-04T16:56:29.972Z,5.32
2023-05-04T17:01:31.570Z,4.35
2023-05-04T17:06:33.189Z,4.18
2023-05-04T17:11:34.865Z,7.20
2023-05-04T17:16:36.519Z,4.90
2023-05-04T17:21:38.165Z,4.47
2023-05-04T17:26:39.682Z,6.38
2023-05-04T17:31:41.285Z,6.43
2023-05-04T17:36:42.922Z,7.32
2023-05-04T17:41:48.975Z,6.32
2023-05-04T17:46:50.946Z,6.35
2023-05-04T17:51:53.208Z,5.30
2023-05-04T17:56:54.743Z,5.78
2023-05-04T18:01:56.328Z,9.15
2023-05-04T18:06:58.611Z,5.65
2023-05-04T18:12:00.196Z,5.82
2023-05-04T18:17:01.747Z,3.25
2023-05-04T18:22:03.297Z,4.32
2023-05-04T18:27:04.873Z,5.20
2023-05-04T18:32:08.873Z,4.93
2023-05-04T18:37:11.115Z,4.63
2023-05-04T18:42:12.779Z,5.95
2023-05-04T18:47:14.352Z,6.53
2023-05-04T18:52:15.894Z,6.10
2023-05-04T18:57:17.797Z,5.97
2023-05-04T19:02:19.399Z,4.30
2023-05-04T19:07:21.065Z,4.90
2023-05-04T19:12:22.712Z,6.25
2023-05-04T19:17:24.365Z,5.22
2023-05-04T19:22:26.036Z,4.40
2023-05-04T19:27:27.787Z,4.75
2023-05-04T19:32:30.967Z,5.93
2023-05-04T19:37:33.035Z,5.28
2023-05-04T19:42:34.632Z,8.32
2023-05-04T19:47:36.246Z,4.68
2023-05-04T19:52:38.488Z,4.90
2023-05-04T19:57:40.059Z,4.82
2023-05-04T20:02:41.987Z,5.07
2023-05-04T20:07:43.833Z,7.97
2023-05-04T20:12:45.433Z,6.03
2023-05-04T20:17:47.018Z,7.07
2023-05-04T20:22:52.150Z,5.13
2023-05-04T20:27:54.089Z,8.32
2023-05-04T20:32:55.694Z,6.75
2023-05-04T20:37:57.978Z,4.45
2023-05-04T20:42:59.530Z,5.72
2023-05-04T20:48:02.446Z,7.63
2023-05-04T20:53:04.315Z,6.22
2023-05-04T20:58:05.911Z,8.30
2023-05-04T21:03:07.533Z,5.25
2023-05-04T21:08:09.173Z,9.48
2023-05-04T21:13:10.788Z,6.55
2023-05-04T21:18:12.560Z,4.65
2023-05-04T21:23:14.507Z,7.88
2023-05-04T21:28:16.045Z,10.10
2023-05-04T21:33:17.577Z,11.25
2023-05-04T21:38:21.700Z,7.10
2023-05-04T21:43:23.724Z,6.40
2023-05-04T21:48:26.063Z,9.93
2023-05-04T21:53:33.048Z,6.95
2023-05-04T21:58:35.913Z,7.93
2023-05-04T22:03:43.568Z,6.95
2023-05-04T22:08:45.118Z,6.15
2023-05-04T22:13:46.773Z,7.03
2023-05-04T22:18:49.509Z,12.02
2023-05-04T22:23:51.094Z,6.70
2023-05-04T22:28:52.780Z,8.90
2023-05-04T22:33:54.319Z,9.52
2023-05-04T22:39:00.974Z,8.25
2023-05-04T22:44:02.512Z,7.25
2023-05-04T22:49:04.640Z,9.65
2023-05-04T22:54:06.269Z,8.70
2023-05-04T22:59:07.844Z,8.65
2023-05-04T23:04:09.838Z,15.55
2023-05-04T23:09:11.837Z,7.95
2023-05-04T23:14:13.410Z,8.70
2023-05-04T23:19:14.945Z,8.65
2023-05-04T23:24:16.502Z,9.25
2023-05-04T23:29:19.047Z,9.07
2023-05-04T23:34:20.600Z,7.07
2023-05-04T23:39:22.187Z,10.48
2023-05-04T23:44:23.757Z,9.82
2023-05-04T23:49:25.344Z,8.98
2023-05-04T23:54:27.051Z,8.98
2023-05-04T23:59:28.570Z,7.25
